Terminal Aerodrome Forecast
Issued by NWS Green Bay, WI

Home | Current Version | Previous Version | Graphics & Text | Print | Product List | Glossary On
Versions: 1 2 3 4 5 6 7 8 9 10 11 12 13 14 15 16 17 18 19 20 21 22 23 24 25 26
000
FTUS43 KGRB 271503 AAB
TAFGRB
TAF AMD
KGRB 271503Z 2715/2812 08006KT 6SM SHRA BR OVC026
      TEMPO 2715/2716 3SM -SHRA BKN006
     FM271600 07008KT 6SM SHRA BR OVC015
      TEMPO 2716/2720 3SM -TSRA BKN006CB
     FM272000 02004KT 6SM BR BKN011
     FM281000 26002KT 2SM BR BKN009=

USA.gov is the U.S. government's official web portal to all federal, state and local government web resources and services.